Accueil
METAR-TAF:

METAR-TAF

Aéroports :

Aéroport international de Tachkent

Tachkent, Ouzbékistan

latitude: 41-16N, longitude: 069-16E, altitude: 489 m

Observation

Le bulletin a été fait il y a 23 minutes, à 20:00 UTC
Vent 2 kt de direction variable
Température 2°C
Humidité 55%
Pression 1030 hPa
Visibilité 10 km ou plus
pas de nuages en-dessous de 1500 mètres et pas de cumulonimbus.

METAR: UTTT 162000Z VRB02KT CAVOK 02/M06 Q1030 R08R/CLRD70 NOSIG

Heure: 01:23 (20:23 UTC)

Prévision

Le bulletin a été fait il y a 3 heures et 23 minutes, à 17:00 UTC
Prévision valable du 16 à 18 UTC au 17 à 18 UTC
Vent 10 kt de est/nord-est
Visibilité: 7000 m
Temporairement
du 16 à 18 UTC au 17 à 02 UTC
Visibilité: 2000 m
brume

TAF: UTTT 161700Z 1618/1718 06010KT 7000 NSC TEMPO 1618/1702 2000 BR

Observations et prévisions météorologiques de plus de 4000 aéroports (messages METAR et TAF).

Les stations disponibles sont représentées par des disques jaunes et rouges sur la carte.

Passer la souris dessus pour voir le nom de la station.

Cliquer dessus pour voir les observations et prévisions météorologiques.

Pour changer de carte: cliquez sur les boutons verts avec une croix noire pour zoomer, sur le bouton vert avec un tiret pour effectuer un zoom arrière, ou sur les flèches vertes pour les cartes adjacentes.


METAR-TAF: